Time;durP1;ratioP1;P1;durP2;ratioP2;P2;SDS_P1;SDS_P2;PMS_P1;PMS_P2;Temp;Humidity;BMP_temperature;BMP_pressure;BME280_temperature;BME280_humidity;BME280_pressure;Samples;Min_cycle;Max_cycle;Signal;HPM_P1;HPM_P2
2022/03/10 00:00:44;;;;;;;45.40;15.30;;;;;;;2.16;82.55;100478.48;103545;1303;24333;-30
2022/03/10 00:03:10;;;;;;;36.80;16.50;;;;;;;2.16;83.29;100481.56;103587;1301;24377;-27
2022/03/10 00:05:36;;;;;;;36.10;15.70;;;;;;;2.18;83.38;100486.53;103518;1303;24248;-28
2022/03/10 00:08:02;;;;;;;52.10;18.50;;;;;;;2.15;84.16;100489.52;103545;1302;24228;-25
2022/03/10 00:10:28;;;;;;;45.80;18.50;;;;;;;2.21;83.54;100488.59;103518;1301;24450;-27
2022/03/10 00:12:54;;;;;;;48.00;17.30;;;;;;;2.21;83.38;100493.89;103556;1300;24290;-25
2022/03/10 00:15:22;;;;;;;40.00;16.50;;;;;;;2.22;82.69;100491.70;103544;1300;24212;-28
2022/03/10 00:17:48;;;;;;;52.00;20.20;;;;;;;2.24;81.39;100493.44;103544;1301;24242;-30
2022/03/10 00:20:14;;;;;;;32.60;14.40;;;;;;;2.19;82.60;100497.35;103515;1303;22597;-27
2022/03/10 00:22:44;;;;;;;45.60;19.10;;;;;;;2.07;84.67;100501.29;103524;1302;24435;-29
2022/03/10 00:25:10;;;;;;;61.70;25.00;;;;;;;2.02;85.00;100502.55;103630;1300;24430;-31
2022/03/10 00:27:36;;;;;;;61.40;25.30;;;;;;;1.98;84.71;100501.07;103497;1302;24261;-31
2022/03/10 00:30:02;;;;;;;60.60;22.10;;;;;;;2.00;83.30;100500.05;103576;1300;24364;-25
2022/03/10 00:32:28;;;;;;;49.00;18.60;;;;;;;2.00;82.83;100503.73;103590;1300;24313;-25
2022/03/10 00:34:54;;;;;;;44.30;21.50;;;;;;;1.98;82.17;100499.98;103586;1302;24300;-29
2022/03/10 00:37:20;;;;;;;39.40;18.40;;;;;;;2.03;81.64;100502.64;103577;1300;24215;-25
2022/03/10 00:39:45;;;;;;;27.30;12.70;;;;;;;2.04;82.38;100506.09;103603;1300;24521;-27
2022/03/10 00:42:11;;;;;;;27.40;13.10;;;;;;;2.17;81.95;100505.63;103538;1300;22635;-30
2022/03/10 00:44:37;;;;;;;14.00;8.50;;;;;;;2.22;81.67;100509.73;103616;1300;22499;-25
2022/03/10 00:47:03;;;;;;;25.40;10.30;;;;;;;2.27;81.31;100510.69;103551;1300;24308;-27
2022/03/10 00:49:28;;;;;;;29.20;15.70;;;;;;;2.29;80.74;100515.15;103548;1300;24466;-29
2022/03/10 00:51:54;;;;;;;18.40;8.80;;;;;;;2.33;80.53;100510.84;103537;1300;24211;-28
2022/03/10 00:54:20;;;;;;;39.70;20.40;;;;;;;2.34;80.19;100515.17;103519;1300;24242;-30
2022/03/10 00:56:46;;;;;;;40.10;17.00;;;;;;;2.31;80.38;100511.85;103563;1303;24368;-27
2022/03/10 00:59:11;;;;;;;18.20;12.40;;;;;;;2.28;80.59;100515.62;103564;1300;24254;-28
2022/03/10 01:01:37;;;;;;;24.90;13.20;;;;;;;2.28;80.56;100518.59;103504;1301;24238;-28
2022/03/10 01:04:03;;;;;;;20.50;10.90;;;;;;;2.28;80.55;100524.20;103472;1302;24259;-26
2022/03/10 01:06:30;;;;;;;30.60;17.20;;;;;;;2.27;80.62;100525.16;103591;1300;24233;-31
2022/03/10 01:08:55;;;;;;;70.00;44.40;;;;;;;2.29;80.63;100527.00;103522;1300;24181;-28
2022/03/10 01:11:21;;;;;;;58.80;29.60;;;;;;;2.35;79.84;100530.39;103550;1300;24214;-28
2022/03/10 01:13:46;;;;;;;15.50;8.20;;;;;;;2.31;79.62;100536.92;103652;1300;24460;-25
2022/03/10 01:16:12;;;;;;;23.20;12.20;;;;;;;2.39;79.15;100539.15;103630;1300;24218;-28
2022/03/10 01:18:38;;;;;;;11.00;6.40;;;;;;;2.29;78.93;100541.64;103565;1300;24237;-27
2022/03/10 01:21:04;;;;;;;12.80;7.80;;;;;;;2.29;78.34;100541.84;103599;1300;24234;-28
2022/03/10 01:23:29;;;;;;;12.60;7.00;;;;;;;2.12;78.99;100542.80;103558;1300;22632;-27
2022/03/10 01:25:55;;;;;;;13.60;7.00;;;;;;;2.27;77.62;100543.21;103490;1300;24259;-27
2022/03/10 01:28:20;;;;;;;15.30;10.30;;;;;;;2.16;77.52;100546.55;103485;1300;24243;-27
2022/03/10 01:30:46;;;;;;;17.30;6.90;;;;;;;2.17;76.99;100549.13;103517;1300;24211;-27
2022/03/10 01:33:12;;;;;;;84.70;38.50;;;;;;;2.10;76.94;100555.33;103421;1302;24218;-27
2022/03/10 01:35:37;;;;;;;16.60;5.70;;;;;;;2.05;76.67;100558.12;103557;1300;24473;-26
2022/03/10 01:38:04;;;;;;;47.00;30.40;;;;;;;2.00;76.56;100557.95;103568;1300;24291;-28
2022/03/10 01:40:30;;;;;;;15.80;10.20;;;;;;;1.91;76.68;100561.45;103555;1300;24210;-29
2022/03/10 01:42:56;;;;;;;11.70;6.90;;;;;;;1.88;76.55;100563.66;103414;1303;22514;-26
2022/03/10 01:45:21;;;;;;;10.60;5.30;;;;;;;1.85;76.18;100567.36;103509;1300;24326;-28
2022/03/10 01:47:47;;;;;;;20.30;12.40;;;;;;;1.69;76.77;100566.40;103535;1300;24355;-25
2022/03/10 01:50:14;;;;;;;12.20;7.00;;;;;;;1.60;77.20;100569.74;103553;1300;22801;-29
2022/03/10 01:52:40;;;;;;;14.10;8.60;;;;;;;1.58;77.20;100572.86;103536;1300;24305;-29
2022/03/10 01:55:06;;;;;;;15.50;7.40;;;;;;;1.52;77.08;100576.13;103550;1300;22511;-27
2022/03/10 01:57:32;;;;;;;12.00;7.10;;;;;;;1.41;77.67;100578.81;103506;1300;24236;-31
2022/03/10 01:59:57;;;;;;;17.00;10.00;;;;;;;1.40;77.72;100583.30;103549;1300;24219;-27
2022/03/10 02:02:24;;;;;;;25.90;13.50;;;;;;;1.25;78.71;100583.66;103566;1300;24467;-30
2022/03/10 02:04:49;;;;;;;21.20;12.30;;;;;;;1.26;78.91;100581.84;103591;1300;24309;-25
2022/03/10 02:12:13;;;;;;;87.40;42.50;;;;;;;1.10;79.88;100591.42;103590;1300;24216;-25
2022/03/10 02:19:39;;;;;;;50.70;28.20;;;;;;;1.07;80.22;100611.05;103550;1300;24304;-30
2022/03/10 02:22:07;;;;;;;19.20;10.20;;;;;;;1.11;79.95;100612.34;103480;1300;24342;-30
2022/03/10 02:24:35;;;;;;;117.90;66.10;;;;;;;1.08;79.76;100617.46;103581;1300;24229;-28
2022/03/10 02:27:09;;;;;;;16.80;9.70;;;;;;;1.19;79.00;100616.91;103453;1302;24217;-29
2022/03/10 02:29:34;;;;;;;;;;;;;;;1.17;78.56;100623.53;103570;1300;24312;-26
2022/03/10 02:32:00;;;;;;;33.80;17.20;;;;;;;1.08;78.64;100628.98;103568;1300;24266;-26
2022/03/10 02:34:26;;;;;;;62.10;30.80;;;;;;;1.08;78.53;100629.29;103501;1300;24246;-25
2022/03/10 02:36:51;;;;;;;61.20;30.60;;;;;;;1.02;78.63;100626.92;103566;1300;24191;-30
2022/03/10 02:39:17;;;;;;;27.90;13.80;;;;;;;1.03;78.37;100630.86;103557;1300;22514;-26
2022/03/10 02:41:43;;;;;;;49.20;28.40;;;;;;;1.03;77.38;100636.88;103568;1301;24215;-28
2022/03/10 02:44:09;;;;;;;475.40;184.30;;;;;;;0.98;77.18;100640.08;103530;1300;24314;-29
2022/03/10 02:46:34;;;;;;;232.60;124.00;;;;;;;1.00;76.71;100646.44;103498;1300;24222;-29
2022/03/10 02:49:00;;;;;;;24.90;16.60;;;;;;;0.99;76.49;100649.00;103436;1302;24282;-28
2022/03/10 02:51:25;;;;;;;31.40;20.90;;;;;;;0.95;76.23;100653.14;103558;1300;24221;-29
2022/03/10 02:53:51;;;;;;;26.00;12.60;;;;;;;0.86;76.02;100655.30;103613;1300;24313;-27
2022/03/10 02:56:17;;;;;;;13.10;7.50;;;;;;;0.83;75.21;100660.98;103493;1301;24888;-26
2022/03/10 02:58:42;;;;;;;35.60;17.20;;;;;;;0.73;74.68;100664.28;103584;1300;22500;-26
2022/03/10 03:01:08;;;;;;;23.40;11.40;;;;;;;0.58;74.66;100667.59;103537;1300;24364;-26
2022/03/10 03:03:34;;;;;;;17.40;9.00;;;;;;;0.53;73.62;100668.61;103520;1300;24298;-29
2022/03/10 03:06:00;;;;;;;16.50;10.70;;;;;;;0.43;72.90;100671.92;103568;1300;24311;-30
2022/03/10 03:08:27;;;;;;;35.40;16.30;;;;;;;0.28;72.86;100676.73;103563;1300;22693;-28
2022/03/10 03:10:52;;;;;;;28.40;14.80;;;;;;;0.15;72.62;100684.46;103500;1302;24368;-27
2022/03/10 03:13:18;;;;;;;18.40;8.70;;;;;;;0.14;72.44;100687.55;103565;1300;22568;-28
2022/03/10 03:15:44;;;;;;;19.70;6.30;;;;;;;0.09;72.09;100689.60;103531;1300;25163;-30
2022/03/10 03:18:10;;;;;;;18.60;6.50;;;;;;;-0.06;72.19;100691.63;103493;1300;24263;-25
2022/03/10 03:20:35;;;;;;;17.40;8.00;;;;;;;-0.28;73.42;100697.24;103484;1302;24270;-29
2022/03/10 03:23:01;;;;;;;14.00;6.50;;;;;;;-0.35;73.51;100702.05;103500;1300;24275;-28
2022/03/10 03:25:27;;;;;;;12.80;5.70;;;;;;;-0.45;73.73;100703.89;103582;1300;22648;-25
2022/03/10 03:27:52;;;;;;;11.50;6.30;;;;;;;-0.51;74.03;100704.95;103565;1300;22515;-28
2022/03/10 03:30:18;;;;;;;11.30;5.40;;;;;;;-0.53;74.02;100707.58;103555;1300;24212;-26
2022/03/10 03:32:44;;;;;;;18.10;6.90;;;;;;;-0.65;74.32;100715.70;103578;1300;25355;-29
2022/03/10 03:35:10;;;;;;;17.10;7.50;;;;;;;-0.75;74.74;100716.30;103600;1300;24343;-25
2022/03/10 03:37:36;;;;;;;18.60;7.80;;;;;;;-0.84;74.96;100718.21;103551;1300;24296;-28
2022/03/10 03:40:02;;;;;;;17.60;7.90;;;;;;;-0.97;75.42;100715.64;103584;1301;22501;-25
2022/03/10 03:42:32;;;;;;;32.90;14.40;;;;;;;-1.04;76.15;100719.73;103590;1300;24208;-27
2022/03/10 03:44:58;;;;;;;36.50;14.00;;;;;;;-1.08;77.24;100723.17;103523;1300;22513;-30
2022/03/10 03:47:24;;;;;;;39.20;15.80;;;;;;;-1.05;76.96;100721.04;103543;1300;24212;-29
2022/03/10 03:49:49;;;;;;;156.60;62.80;;;;;;;-1.06;77.28;100725.83;103627;1300;24209;-26
2022/03/10 03:52:15;;;;;;;133.20;58.50;;;;;;;-1.03;77.72;100731.31;103551;1300;22493;-24
2022/03/10 03:54:41;;;;;;;43.50;25.20;;;;;;;-1.04;77.99;100734.67;103585;1300;24193;-25
2022/03/10 03:57:06;;;;;;;142.20;66.30;;;;;;;-1.01;78.13;100740.65;103526;1300;24294;-27
2022/03/10 03:59:32;;;;;;;198.30;86.20;;;;;;;-1.00;78.48;100743.41;103505;1303;24460;-29
2022/03/10 04:01:58;;;;;;;109.30;46.70;;;;;;;-0.98;78.53;100746.28;103552;1300;25073;-29
2022/03/10 04:04:24;;;;;;;61.80;24.90;;;;;;;-0.96;78.62;100747.77;103521;1302;24218;-25
2022/03/10 04:06:50;;;;;;;102.50;50.10;;;;;;;-0.97;78.84;100753.46;103615;1300;24345;-29
2022/03/10 04:09:17;;;;;;;105.20;53.50;;;;;;;-0.94;79.09;100753.83;103540;1301;24240;-26
2022/03/10 04:11:42;;;;;;;36.40;21.20;;;;;;;-0.88;79.14;100758.00;103509;1302;24320;-30
2022/03/10 04:14:10;;;;;;;48.20;24.70;;;;;;;-0.80;78.85;100761.77;103166;1300;572919;-26
2022/03/10 04:16:35;;;;;;;60.60;37.30;;;;;;;-0.76;78.63;100763.31;103547;1300;24349;-28
2022/03/10 04:19:01;;;;;;;24.50;15.80;;;;;;;-0.72;78.72;100768.34;103607;1300;24234;-27
2022/03/10 04:21:27;;;;;;;45.70;28.20;;;;;;;-0.58;78.52;100769.27;103502;1302;24313;-28
2022/03/10 04:23:53;;;;;;;35.70;22.40;;;;;;;-0.54;78.23;100770.06;103602;1300;24173;-25
2022/03/10 04:26:18;;;;;;;35.20;19.80;;;;;;;-0.55;78.39;100772.56;103490;1300;24212;-28
2022/03/10 04:28:44;;;;;;;48.90;29.50;;;;;;;-0.60;78.84;100772.88;103607;1300;24460;-25
2022/03/10 04:31:10;;;;;;;30.70;19.30;;;;;;;-0.67;79.08;100775.41;103514;1302;24215;-28
2022/03/10 04:33:37;;;;;;;37.00;20.30;;;;;;;-0.70;79.10;100783.17;103350;1303;24209;-31
2022/03/10 04:36:04;;;;;;;22.90;13.80;;;;;;;-0.79;79.40;100784.06;103558;1298;24314;-29
2022/03/10 04:38:29;;;;;;;28.80;13.90;;;;;;;-0.86;79.52;100789.73;103533;1300;24310;-25
2022/03/10 04:40:55;;;;;;;17.00;9.40;;;;;;;-0.93;79.57;100787.48;103558;1300;22511;-27
2022/03/10 04:43:21;;;;;;;22.70;13.60;;;;;;;-1.02;79.66;100787.70;103584;1300;24214;-28
2022/03/10 04:45:46;;;;;;;28.00;16.20;;;;;;;-1.13;80.33;100791.29;103528;1300;24265;-30
2022/03/10 04:48:12;;;;;;;22.90;14.50;;;;;;;-1.17;80.57;100802.77;103294;1302;22511;-28
2022/03/10 04:50:38;;;;;;;19.90;9.30;;;;;;;-1.16;80.80;100799.54;103577;1300;24364;-26
2022/03/10 04:53:04;;;;;;;17.00;10.50;;;;;;;-1.26;80.96;100803.10;103519;1300;24298;-28
2022/03/10 04:55:31;;;;;;;23.10;8.80;;;;;;;-1.31;80.99;100810.96;103582;1300;24314;-25
2022/03/10 04:57:56;;;;;;;24.30;10.30;;;;;;;-1.38;81.35;100814.34;103633;1300;24317;-25
2022/03/10 05:00:22;;;;;;;19.10;8.80;;;;;;;-1.49;81.59;100820.38;103485;1300;24256;-28
2022/03/10 05:02:48;;;;;;;14.00;8.00;;;;;;;-1.59;82.28;100818.80;103637;1300;24211;-28
2022/03/10 05:05:14;;;;;;;39.80;15.00;;;;;;;-1.59;82.24;100829.73;103555;1300;24221;-28
2022/03/10 05:07:41;;;;;;;23.80;10.50;;;;;;;-1.69;82.44;100830.07;103612;1300;24263;-30
2022/03/10 05:10:09;;;;;;;26.10;11.80;;;;;;;-1.77;83.24;100832.96;103505;1300;24955;-26
2022/03/10 05:12:44;;;;;;;15.20;7.90;;;;;;;-1.85;83.53;100836.57;103524;1302;24256;-25
2022/03/10 05:15:10;;;;;;;16.60;7.40;;;;;;;-1.93;84.15;100837.33;103585;1300;22879;-27
2022/03/10 05:17:36;;;;;;;11.20;7.40;;;;;;;-1.92;83.22;100845.33;103546;1300;24298;-27
2022/03/10 05:20:02;;;;;;;12.60;7.10;;;;;;;-1.81;82.13;100847.39;103509;1300;24256;-28
2022/03/10 05:22:42;;;;;;;20.30;9.00;;;;;;;-1.86;81.83;100849.94;103615;1300;22810;-25
2022/03/10 05:25:08;;;;;;;43.50;24.20;;;;;;;-1.93;81.84;100853.64;103560;1300;24293;-28
2022/03/10 05:27:34;;;;;;;12.00;7.70;;;;;;;-1.93;82.01;100855.42;103537;1300;24281;-28
2022/03/10 05:30:00;;;;;;;13.40;7.30;;;;;;;-1.95;82.24;100860.39;103514;1301;24215;-27
2022/03/10 05:32:25;;;;;;;27.70;13.60;;;;;;;-1.94;82.27;100860.72;103582;1300;24774;-29
2022/03/10 05:34:51;;;;;;;13.60;6.60;;;;;;;-2.04;82.28;100869.84;103553;1300;24249;-26
2022/03/10 05:37:17;;;;;;;14.80;7.10;;;;;;;-2.12;82.61;100875.73;103525;1300;24380;-26
2022/03/10 05:39:42;;;;;;;15.40;7.30;;;;;;;-2.12;82.77;100877.83;103570;1300;24270;-26
2022/03/10 05:42:08;;;;;;;11.30;4.90;;;;;;;-2.07;82.71;100880.87;103545;1300;24363;-29
2022/03/10 05:44:34;;;;;;;13.20;7.50;;;;;;;-2.11;82.52;100883.21;103598;1300;24280;-25
2022/03/10 05:47:00;;;;;;;25.70;12.00;;;;;;;-2.16;82.86;100887.66;103514;1300;24336;-26
2022/03/10 05:49:25;;;;;;;14.70;7.70;;;;;;;-2.14;82.90;100883.86;103533;1300;24211;-25
2022/03/10 05:51:51;;;;;;;11.80;6.50;;;;;;;-2.05;82.71;100885.52;103589;1300;24283;-25
2022/03/10 05:54:17;;;;;;;15.30;7.60;;;;;;;-2.03;82.60;100891.02;103552;1300;24323;-26
2022/03/10 05:56:42;;;;;;;13.90;7.80;;;;;;;-2.08;82.90;100895.84;103507;1300;24373;-29
2022/03/10 05:59:08;;;;;;;24.60;12.20;;;;;;;-2.07;82.91;100901.60;103510;1300;24267;-28
2022/03/10 06:01:34;;;;;;;13.80;8.00;;;;;;;-2.09;82.96;100904.14;103564;1300;24298;-25
2022/03/10 06:04:00;;;;;;;21.10;6.70;;;;;;;-1.98;82.95;100904.29;103558;1300;24183;-28
2022/03/10 06:06:25;;;;;;;11.30;6.30;;;;;;;-1.95;82.50;100910.60;103551;1300;22969;-25
2022/03/10 06:08:52;;;;;;;16.90;7.70;;;;;;;-1.90;82.47;100911.42;103577;1300;24282;-28
2022/03/10 06:11:19;;;;;;;12.90;6.60;;;;;;;-1.84;82.08;100920.61;103570;1300;24298;-26
2022/03/10 06:13:44;;;;;;;20.40;8.60;;;;;;;-1.93;82.38;100921.77;103481;1301;24216;-26
2022/03/10 06:16:10;;;;;;;14.30;7.10;;;;;;;-1.84;82.14;100928.33;103554;1300;24236;-27
2022/03/10 06:18:36;;;;;;;15.40;7.70;;;;;;;-1.78;82.25;100932.59;103531;1300;24189;-30
2022/03/10 06:21:02;;;;;;;26.50;9.00;;;;;;;-1.69;82.11;100936.28;103605;1300;25888;-26
2022/03/10 06:23:28;;;;;;;16.40;8.50;;;;;;;-1.54;81.35;100939.21;103542;1300;24215;-27
2022/03/10 06:25:54;;;;;;;14.20;7.70;;;;;;;-1.47;81.08;100946.73;103484;1300;24298;-30
2022/03/10 06:28:19;;;;;;;10.10;6.00;;;;;;;-1.41;80.59;100945.17;103483;1301;24323;-25
2022/03/10 06:30:45;;;;;;;9.80;6.10;;;;;;;-1.39;80.61;100952.10;103553;1300;24298;-28
2022/03/10 06:33:12;;;;;;;16.10;6.00;;;;;;;-1.22;79.47;100955.58;103590;1300;24209;-27
2022/03/10 06:35:38;;;;;;;12.70;7.20;;;;;;;-1.21;78.55;100957.80;103539;1300;24256;-26
2022/03/10 06:38:04;;;;;;;12.20;6.80;;;;;;;-1.19;77.98;100962.63;103630;1300;24274;-26
2022/03/10 06:40:29;;;;;;;8.00;6.00;;;;;;;-1.23;78.07;100967.78;103631;1300;24249;-26
2022/03/10 06:42:55;;;;;;;13.80;8.10;;;;;;;-1.26;78.14;100971.77;103507;1300;24212;-26
2022/03/10 06:45:21;;;;;;;13.00;5.50;;;;;;;-1.21;77.70;100976.62;103534;1300;24285;-27
2022/03/10 06:47:46;;;;;;;16.40;6.90;;;;;;;-1.29;78.13;100978.98;103546;1300;24249;-29
2022/03/10 06:50:12;;;;;;;10.20;6.20;;;;;;;-1.20;78.30;100978.88;103549;1300;24211;-29
2022/03/10 06:52:38;;;;;;;13.60;6.20;;;;;;;-1.28;78.38;100978.27;103528;1300;24149;-26
2022/03/10 06:55:04;;;;;;;15.90;6.90;;;;;;;-1.34;79.40;100983.83;103505;1302;24243;-26
2022/03/10 06:57:30;;;;;;;9.60;5.00;;;;;;;-1.17;78.89;100982.90;103439;1303;24240;-28
2022/03/10 06:59:56;;;;;;;16.80;6.20;;;;;;;-0.99;77.83;100981.91;103566;1300;24431;-29
2022/03/10 07:02:22;;;;;;;7.70;5.30;;;;;;;-1.08;77.55;100983.83;103542;1300;24298;-25
2022/03/10 07:04:48;;;;;;;15.00;7.70;;;;;;;-1.09;77.17;100986.34;103639;1300;24189;-28
2022/03/10 07:07:14;;;;;;;20.90;6.80;;;;;;;-1.16;77.55;100991.95;103612;1300;22646;-28
2022/03/10 07:09:41;;;;;;;20.50;8.50;;;;;;;-1.10;78.03;100992.76;103561;1300;24309;-26
2022/03/10 07:12:09;;;;;;;19.20;9.50;;;;;;;-0.94;78.06;100996.60;103467;1300;24474;-29
2022/03/10 07:14:34;;;;;;;23.40;11.00;;;;;;;-0.78;77.59;100997.13;103368;1302;22555;-25
2022/03/10 07:17:00;;;;;;;18.80;8.80;;;;;;;-0.57;77.21;100997.70;103530;1300;24215;-25
2022/03/10 07:19:26;;;;;;;26.20;9.60;;;;;;;-0.25;74.88;100996.98;103559;1300;24435;-26
2022/03/10 07:21:52;;;;;;;11.80;6.40;;;;;;;-0.24;74.43;100999.52;103530;1300;24262;-28
2022/03/10 07:24:17;;;;;;;8.20;4.70;;;;;;;-0.15;74.32;100997.45;103539;1300;24286;-25
2022/03/10 07:26:43;;;;;;;9.50;6.30;;;;;;;-0.06;73.98;101001.50;103619;1300;22499;-25
2022/03/10 07:29:09;;;;;;;10.40;6.20;;;;;;;0.16;72.57;101002.30;103588;1300;24461;-28
2022/03/10 07:31:35;;;;;;;8.80;5.00;;;;;;;0.32;71.11;100999.44;103546;1301;24217;-29
2022/03/10 07:34:01;;;;;;;10.00;5.40;;;;;;;0.25;70.49;101005.13;103590;1300;24256;-26
2022/03/10 07:36:27;;;;;;;9.80;5.30;;;;;;;0.27;70.78;101006.23;103594;1300;22499;-29
2022/03/10 07:38:53;;;;;;;7.70;5.00;;;;;;;0.47;70.14;101001.20;103589;1300;24223;-28
2022/03/10 07:41:18;;;;;;;12.40;6.40;;;;;;;0.55;69.69;101004.24;103565;1300;24225;-27
2022/03/10 07:43:44;;;;;;;14.00;5.30;;;;;;;0.63;70.55;101005.47;103554;1301;24226;-25
2022/03/10 07:46:10;;;;;;;12.80;6.80;;;;;;;1.04;68.78;101009.34;103556;1303;24351;-29
2022/03/10 07:48:35;;;;;;;6.50;4.00;;;;;;;1.12;67.52;101007.05;103559;1300;24302;-25
2022/03/10 07:51:01;;;;;;;12.20;5.90;;;;;;;1.16;67.21;101013.13;103549;1300;24238;-25
2022/03/10 07:53:27;;;;;;;8.10;5.50;;;;;;;1.34;66.24;101015.91;103493;1300;24211;-25
2022/03/10 07:55:56;;;;;;;12.50;6.30;;;;;;;1.36;66.15;101021.59;103497;1302;24369;-29
2022/03/10 07:58:23;;;;;;;7.00;4.70;;;;;;;1.55;65.46;101021.95;103461;1301;24365;-26
2022/03/10 08:00:51;;;;;;;12.10;6.20;;;;;;;1.76;64.65;101025.23;103501;1302;24358;-26
2022/03/10 08:03:16;;;;;;;8.30;4.50;;;;;;;1.92;63.30;101030.13;103571;1300;25282;-28
2022/03/10 08:05:43;;;;;;;13.30;6.60;;;;;;;1.86;63.12;101032.14;103521;1300;24177;-27
2022/03/10 08:08:09;;;;;;;8.40;4.50;;;;;;;1.89;63.64;101033.52;103579;1301;24421;-28
2022/03/10 08:10:36;;;;;;;8.60;5.80;;;;;;;2.11;62.18;101032.94;103609;1300;22630;-28
2022/03/10 08:13:02;;;;;;;11.10;6.50;;;;;;;2.19;62.36;101038.98;103574;1300;24451;-31
2022/03/10 08:15:28;;;;;;;11.30;6.30;;;;;;;2.37;62.13;101034.92;103603;1300;24291;-28
2022/03/10 08:17:54;;;;;;;24.30;8.10;;;;;;;2.68;59.62;101025.20;103547;1300;24296;-28
2022/03/10 08:20:19;;;;;;;16.80;6.20;;;;;;;2.41;58.02;101036.80;103578;1300;24214;-25
2022/03/10 08:22:45;;;;;;;16.00;7.90;;;;;;;2.04;59.39;101043.34;103605;1300;22629;-28
2022/03/10 08:25:12;;;;;;;65.00;18.40;;;;;;;2.02;59.96;101039.90;103437;1301;24196;-28
2022/03/10 08:27:38;;;;;;;65.70;19.70;;;;;;;2.33;58.40;101037.63;103618;1300;24314;-28
2022/03/10 08:30:04;;;;;;;57.00;15.70;;;;;;;1.87;58.80;101040.91;103583;1300;24343;-25
2022/03/10 08:32:30;;;;;;;21.40;8.70;;;;;;;1.72;59.51;101038.50;103609;1300;24304;-25
2022/03/10 08:34:56;;;;;;;39.70;13.60;;;;;;;1.97;59.64;101037.39;103544;1300;24249;-27
2022/03/10 08:37:22;;;;;;;17.10;7.90;;;;;;;2.06;58.86;101037.54;103508;1302;23936;-31
2022/03/10 08:39:48;;;;;;;9.10;5.70;;;;;;;2.30;58.32;101034.14;103465;1302;24249;-26
2022/03/10 08:42:14;;;;;;;16.10;7.30;;;;;;;2.37;57.24;101031.40;103610;1300;22609;-26
2022/03/10 08:44:39;;;;;;;10.80;7.20;;;;;;;2.08;56.63;101033.88;103592;1300;24245;-28
2022/03/10 08:47:06;;;;;;;9.80;6.20;;;;;;;2.18;54.37;101033.54;103495;1302;24243;-25
2022/03/10 08:49:31;;;;;;;10.30;5.90;;;;;;;1.84;54.33;101036.50;103580;1300;24422;-30
2022/03/10 08:51:57;;;;;;;6.90;4.30;;;;;;;2.03;53.68;101031.37;103546;1300;24365;-26
2022/03/10 08:54:23;;;;;;;8.60;4.30;;;;;;;2.04;54.28;101031.48;103541;1300;24303;-26
2022/03/10 08:56:50;;;;;;;5.60;4.10;;;;;;;2.43;50.29;101023.21;103510;1302;24351;-28
2022/03/10 08:59:15;;;;;;;11.10;5.70;;;;;;;2.36;50.40;101031.45;103557;1300;24212;-27
2022/03/10 09:01:41;;;;;;;11.00;4.60;;;;;;;2.51;51.33;101029.35;103533;1300;24298;-27
2022/03/10 09:04:07;;;;;;;8.60;5.10;;;;;;;2.72;48.95;101035.02;103554;1300;25031;-26
2022/03/10 09:06:33;;;;;;;6.80;3.70;;;;;;;2.75;47.74;101031.23;103550;1300;24593;-29
2022/03/10 09:08:59;;;;;;;5.80;3.90;;;;;;;2.68;47.93;101039.00;103512;1300;24432;-28
2022/03/10 09:11:25;;;;;;;20.00;5.90;;;;;;;2.77;48.59;101038.02;103598;1300;24324;-30
2022/03/10 09:13:52;;;;;;;20.10;7.90;;;;;;;3.00;48.35;101033.77;103568;1300;24046;-25
2022/03/10 09:16:18;;;;;;;7.50;4.60;;;;;;;3.21;47.53;101042.19;103523;1300;23957;-28
2022/03/10 09:18:45;;;;;;;7.30;3.90;;;;;;;3.36;44.82;101038.64;103619;1300;24245;-25
2022/03/10 09:21:12;;;;;;;8.10;4.20;;;;;;;3.02;46.05;101038.04;103492;1302;24458;-29
2022/03/10 09:23:39;;;;;;;11.20;5.70;;;;;;;3.65;43.41;101036.88;103610;1300;25230;-25
2022/03/10 09:26:05;;;;;;;7.40;4.30;;;;;;;3.35;44.18;101044.02;103590;1300;24302;-25
2022/03/10 09:28:30;;;;;;;6.00;3.70;;;;;;;3.12;45.93;101042.34;103552;1302;24191;-28
2022/03/10 09:30:56;;;;;;;7.20;5.00;;;;;;;3.46;44.85;101048.72;103528;1302;24253;-27
2022/03/10 09:33:23;;;;;;;7.30;4.70;;;;;;;3.38;44.31;101047.53;103609;1300;24358;-25
2022/03/10 09:35:50;;;;;;;7.00;4.40;;;;;;;3.30;46.44;101051.96;103515;1302;22875;-28
2022/03/10 09:38:16;;;;;;;13.80;5.70;;;;;;;3.55;45.29;101053.20;103511;1300;22776;-28
2022/03/10 09:40:42;;;;;;;8.30;4.90;;;;;;;3.97;44.49;101053.69;103563;1300;24299;-28
2022/03/10 09:43:09;;;;;;;5.60;4.50;;;;;;;3.74;42.84;101049.86;103580;1300;24304;-25
2022/03/10 09:45:35;;;;;;;16.80;3.10;;;;;;;3.65;43.67;101043.61;103588;1300;24268;-29
2022/03/10 09:48:01;;;;;;;8.00;3.80;;;;;;;3.02;44.93;101051.33;103600;1300;25579;-25
2022/03/10 09:50:27;;;;;;;7.20;4.30;;;;;;;3.66;44.47;101047.63;103532;1300;24215;-28
2022/03/10 09:52:53;;;;;;;15.90;5.90;;;;;;;4.30;42.15;101051.02;103558;1302;24252;-28
2022/03/10 09:55:19;;;;;;;11.10;5.70;;;;;;;3.95;43.34;101055.45;103567;1300;24172;-25
2022/03/10 09:57:45;;;;;;;8.20;3.90;;;;;;;3.78;42.97;101059.84;103515;1300;24394;-28
2022/03/10 10:00:14;;;;;;;19.60;8.10;;;;;;;3.83;42.65;101053.47;103529;1300;24233;-29
2022/03/10 10:02:40;;;;;;;5.40;3.80;;;;;;;3.85;43.12;101057.59;103611;1300;22896;-25
2022/03/10 10:05:12;;;;;;;19.90;6.80;;;;;;;4.00;42.99;101054.70;103632;1300;24237;-25
2022/03/10 10:07:38;;;;;;;5.20;4.10;;;;;;;4.50;41.60;101054.13;103545;1300;24234;-30
2022/03/10 10:10:06;;;;;;;10.60;5.30;;;;;;;4.56;40.36;101052.76;103510;1300;24222;-28
2022/03/10 10:12:33;;;;;;;7.80;4.20;;;;;;;3.91;41.52;101056.05;103606;1300;24317;-30
2022/03/10 10:15:00;;;;;;;20.70;4.70;;;;;;;4.38;40.53;101057.19;103471;1300;24374;-25
2022/03/10 10:17:28;;;;;;;7.20;4.50;;;;;;;4.19;40.65;101059.86;103610;1300;24240;-25
2022/03/10 10:19:56;;;;;;;6.80;4.90;;;;;;;4.10;41.45;101060.54;103557;1300;22721;-28
2022/03/10 10:22:24;;;;;;;8.00;5.30;;;;;;;4.61;40.72;101054.35;103546;1299;24367;-28
2022/03/10 10:24:50;;;;;;;6.20;4.50;;;;;;;4.71;39.89;101051.94;103540;1300;24256;-28
2022/03/10 10:27:18;;;;;;;8.90;4.30;;;;;;;4.10;41.65;101050.27;103559;1300;24300;-28
2022/03/10 10:29:46;;;;;;;8.00;4.30;;;;;;;4.58;41.63;101051.92;103560;1302;24369;-28
2022/03/10 10:32:12;;;;;;;7.80;5.00;;;;;;;4.91;39.63;101051.81;103587;1302;24182;-25
2022/03/10 10:34:37;;;;;;;8.30;3.70;;;;;;;5.06;39.41;101050.86;103475;1302;24298;-25
2022/03/10 10:37:03;;;;;;;4.80;3.10;;;;;;;4.96;38.33;101056.80;103567;1300;24364;-24
2022/03/10 10:39:29;;;;;;;6.50;3.80;;;;;;;4.68;39.27;101057.87;103606;1300;24212;-26
2022/03/10 10:41:54;;;;;;;7.30;4.50;;;;;;;4.94;38.88;101054.48;103531;1302;24361;-28
2022/03/10 10:44:21;;;;;;;8.40;4.50;;;;;;;4.61;39.53;101056.31;103613;1300;24286;-25
2022/03/10 10:46:49;;;;;;;5.50;3.20;;;;;;;5.01;39.59;101054.08;103593;1300;24247;-28
2022/03/10 10:49:16;;;;;;;7.60;4.20;;;;;;;5.19;39.88;101057.89;103608;1300;24346;-29
2022/03/10 10:51:44;;;;;;;7.30;4.90;;;;;;;5.38;39.86;101061.10;103543;1300;24314;-28
2022/03/10 10:54:23;;;;;;;11.20;4.70;;;;;;;5.68;39.92;101066.71;103581;1300;24214;-28
2022/03/10 10:56:53;;;;;;;7.80;4.40;;;;;;;5.86;37.72;101063.65;103574;1300;24231;-28
2022/03/10 10:59:26;;;;;;;8.10;5.20;;;;;;;5.95;37.97;101064.36;103507;1300;24395;-30
2022/03/10 11:01:54;;;;;;;6.20;4.80;;;;;;;6.04;37.20;101064.03;103605;1300;22835;-25
2022/03/10 11:04:19;;;;;;;6.90;4.30;;;;;;;5.85;37.36;101065.36;103563;1300;24245;-28
2022/03/10 11:06:45;;;;;;;5.50;2.80;;;;;;;5.67;36.36;101063.43;103510;1301;24212;-28
2022/03/10 11:09:10;;;;;;;5.70;2.40;;;;;;;5.53;36.04;101073.27;103588;1300;24343;-25
2022/03/10 11:11:37;;;;;;;5.50;3.10;;;;;;;5.75;34.72;101074.88;103547;1300;24213;-30
2022/03/10 11:14:03;;;;;;;6.60;4.10;;;;;;;6.08;34.93;101074.48;103463;1300;24246;-28
2022/03/10 11:16:30;;;;;;;5.20;3.40;;;;;;;6.54;33.25;101065.48;103424;1303;24259;-28
2022/03/10 11:18:55;;;;;;;4.40;3.10;;;;;;;6.16;33.66;101071.55;103545;1300;24347;-25